sensor_id;sensor_type;location;lat;lon;timestamp;temperature;humidity
11387;DHT22;5748;53.102;8.456;2023-04-01T00:00:46;14.70;65.20
11387;DHT22;5748;53.102;8.456;2023-04-01T00:03:13;14.70;65.10
11387;DHT22;5748;53.102;8.456;2023-04-01T00:05:40;14.60;65.10
11387;DHT22;5748;53.102;8.456;2023-04-01T00:08:09;14.60;65.20
11387;DHT22;5748;53.102;8.456;2023-04-01T00:10:37;14.70;65.40
11387;DHT22;5748;53.102;8.456;2023-04-01T00:13:05;14.70;65.30
11387;DHT22;5748;53.102;8.456;2023-04-01T00:15:32;14.70;65.30
11387;DHT22;5748;53.102;8.456;2023-04-01T00:17:59;14.70;65.50
11387;DHT22;5748;53.102;8.456;2023-04-01T00:20:27;14.70;65.50
11387;DHT22;5748;53.102;8.456;2023-04-01T00:22:55;14.70;65.40
11387;DHT22;5748;53.102;8.456;2023-04-01T00:25:24;14.70;65.40
11387;DHT22;5748;53.102;8.456;2023-04-01T00:27:51;14.70;65.40
11387;DHT22;5748;53.102;8.456;2023-04-01T00:30:18;14.70;65.40
11387;DHT22;5748;53.102;8.456;2023-04-01T00:32:45;14.70;65.70
11387;DHT22;5748;53.102;8.456;2023-04-01T00:35:12;14.70;65.40
11387;DHT22;5748;53.102;8.456;2023-04-01T00:37:39;14.70;65.40
11387;DHT22;5748;53.102;8.456;2023-04-01T00:40:28;14.70;65.40
11387;DHT22;5748;53.102;8.456;2023-04-01T00:42:56;14.70;66.50
11387;DHT22;5748;53.102;8.456;2023-04-01T00:45:28;14.70;65.60
11387;DHT22;5748;53.102;8.456;2023-04-01T00:47:59;14.60;65.50
11387;DHT22;5748;53.102;8.456;2023-04-01T00:50:29;14.60;65.60
11387;DHT22;5748;53.102;8.456;2023-04-01T00:52:58;14.70;65.80
11387;DHT22;5748;53.102;8.456;2023-04-01T00:55:28;14.60;65.80
11387;DHT22;5748;53.102;8.456;2023-04-01T00:57:58;14.70;65.90
11387;DHT22;5748;53.102;8.456;2023-04-01T01:00:26;14.70;65.80
11387;DHT22;5748;53.102;8.456;2023-04-01T01:02:53;14.70;65.80
11387;DHT22;5748;53.102;8.456;2023-04-01T01:05:26;14.60;65.70
11387;DHT22;5748;53.102;8.456;2023-04-01T01:08:01;14.70;65.90
11387;DHT22;5748;53.102;8.456;2023-04-01T01:10:33;14.70;65.80
11387;DHT22;5748;53.102;8.456;2023-04-01T01:13:08;14.60;65.90
11387;DHT22;5748;53.102;8.456;2023-04-01T01:15:41;14.70;66.10
11387;DHT22;5748;53.102;8.456;2023-04-01T01:18:18;14.60;65.80
11387;DHT22;5748;53.102;8.456;2023-04-01T01:21:29;14.70;66.00
11387;DHT22;5748;53.102;8.456;2023-04-01T01:24:21;14.60;66.20
11387;DHT22;5748;53.102;8.456;2023-04-01T01:26:59;14.60;66.00
11387;DHT22;5748;53.102;8.456;2023-04-01T01:36:10;14.60;66.20
11387;DHT22;5748;53.102;8.456;2023-04-01T01:38:39;14.70;65.80
11387;DHT22;5748;53.102;8.456;2023-04-01T01:41:07;14.60;65.60
11387;DHT22;5748;53.102;8.456;2023-04-01T01:43:39;14.70;65.90
11387;DHT22;5748;53.102;8.456;2023-04-01T01:46:11;14.60;65.80
11387;DHT22;5748;53.102;8.456;2023-04-01T01:48:40;14.60;65.90
11387;DHT22;5748;53.102;8.456;2023-04-01T01:51:10;14.60;65.90
11387;DHT22;5748;53.102;8.456;2023-04-01T01:53:37;14.60;65.90
11387;DHT22;5748;53.102;8.456;2023-04-01T01:56:05;14.70;65.90
11387;DHT22;5748;53.102;8.456;2023-04-01T01:58:36;14.60;65.90
11387;DHT22;5748;53.102;8.456;2023-04-01T02:01:09;14.70;66.10
11387;DHT22;5748;53.102;8.456;2023-04-01T02:03:39;14.70;66.30
11387;DHT22;5748;53.102;8.456;2023-04-01T02:06:08;14.70;66.20
11387;DHT22;5748;53.102;8.456;2023-04-01T02:08:41;14.70;66.00
11387;DHT22;5748;53.102;8.456;2023-04-01T02:11:12;14.70;66.30
11387;DHT22;5748;53.102;8.456;2023-04-01T02:13:44;14.70;66.90
11387;DHT22;5748;53.102;8.456;2023-04-01T02:16:18;14.70;66.00
11387;DHT22;5748;53.102;8.456;2023-04-01T02:18:49;14.70;66.00
11387;DHT22;5748;53.102;8.456;2023-04-01T02:21:22;14.60;66.10
11387;DHT22;5748;53.102;8.456;2023-04-01T02:23:53;14.70;66.10
11387;DHT22;5748;53.102;8.456;2023-04-01T02:26:21;14.70;66.00
11387;DHT22;5748;53.102;8.456;2023-04-01T02:28:49;14.70;66.00
11387;DHT22;5748;53.102;8.456;2023-04-01T02:31:17;14.70;66.50
11387;DHT22;5748;53.102;8.456;2023-04-01T02:33:45;14.60;66.10
11387;DHT22;5748;53.102;8.456;2023-04-01T02:36:14;14.60;66.20
11387;DHT22;5748;53.102;8.456;2023-04-01T02:38:45;14.70;66.20
11387;DHT22;5748;53.102;8.456;2023-04-01T02:41:13;14.60;66.10
11387;DHT22;5748;53.102;8.456;2023-04-01T02:43:40;14.60;65.80
11387;DHT22;5748;53.102;8.456;2023-04-01T02:46:07;14.60;66.20
11387;DHT22;5748;53.102;8.456;2023-04-01T02:48:34;14.70;66.10
11387;DHT22;5748;53.102;8.456;2023-04-01T02:51:01;14.60;66.00
11387;DHT22;5748;53.102;8.456;2023-04-01T02:53:29;14.60;66.00
11387;DHT22;5748;53.102;8.456;2023-04-01T02:55:57;14.60;66.00
11387;DHT22;5748;53.102;8.456;2023-04-01T02:58:24;14.60;66.00
11387;DHT22;5748;53.102;8.456;2023-04-01T03:00:51;14.60;66.10
11387;DHT22;5748;53.102;8.456;2023-04-01T03:03:18;14.60;66.20
11387;DHT22;5748;53.102;8.456;2023-04-01T03:05:45;14.60;66.80
11387;DHT22;5748;53.102;8.456;2023-04-01T03:08:12;14.60;66.10
11387;DHT22;5748;53.102;8.456;2023-04-01T03:10:39;14.60;66.10
11387;DHT22;5748;53.102;8.456;2023-04-01T03:13:08;14.60;66.00
11387;DHT22;5748;53.102;8.456;2023-04-01T03:15:35;14.60;66.10
11387;DHT22;5748;53.102;8.456;2023-04-01T03:18:02;14.60;66.20
11387;DHT22;5748;53.102;8.456;2023-04-01T03:20:30;14.60;66.20
11387;DHT22;5748;53.102;8.456;2023-04-01T03:22:57;14.70;66.30
11387;DHT22;5748;53.102;8.456;2023-04-01T03:25:24;14.60;66.20
11387;DHT22;5748;53.102;8.456;2023-04-01T03:27:52;14.60;66.40
11387;DHT22;5748;53.102;8.456;2023-04-01T03:30:20;14.60;66.20
11387;DHT22;5748;53.102;8.456;2023-04-01T03:32:47;14.60;66.20
11387;DHT22;5748;53.102;8.456;2023-04-01T03:35:14;14.50;66.00
11387;DHT22;5748;53.102;8.456;2023-04-01T03:37:41;14.60;66.10
11387;DHT22;5748;53.102;8.456;2023-04-01T03:40:09;14.60;66.20
11387;DHT22;5748;53.102;8.456;2023-04-01T03:42:37;14.60;66.20
11387;DHT22;5748;53.102;8.456;2023-04-01T03:45:05;14.60;66.10
11387;DHT22;5748;53.102;8.456;2023-04-01T03:47:34;14.60;66.20
11387;DHT22;5748;53.102;8.456;2023-04-01T03:50:01;14.60;66.10
11387;DHT22;5748;53.102;8.456;2023-04-01T03:52:28;14.60;66.20
11387;DHT22;5748;53.102;8.456;2023-04-01T03:54:55;14.60;66.00
11387;DHT22;5748;53.102;8.456;2023-04-01T03:57:22;14.50;66.00
11387;DHT22;5748;53.102;8.456;2023-04-01T03:59:49;14.50;66.00
11387;DHT22;5748;53.102;8.456;2023-04-01T04:02:16;14.60;66.20
11387;DHT22;5748;53.102;8.456;2023-04-01T04:04:45;14.50;66.20
11387;DHT22;5748;53.102;8.456;2023-04-01T04:07:12;14.60;66.20
11387;DHT22;5748;53.102;8.456;2023-04-01T04:09:39;14.50;66.30
11387;DHT22;5748;53.102;8.456;2023-04-01T04:12:06;14.50;66.30
11387;DHT22;5748;53.102;8.456;2023-04-01T04:14:33;14.50;66.20
11387;DHT22;5748;53.102;8.456;2023-04-01T04:17:00;14.60;66.30
11387;DHT22;5748;53.102;8.456;2023-04-01T04:19:31;14.50;66.30
11387;DHT22;5748;53.102;8.456;2023-04-01T04:22:01;14.50;66.40
11387;DHT22;5748;53.102;8.456;2023-04-01T04:24:28;14.50;66.40
11387;DHT22;5748;53.102;8.456;2023-04-01T04:26:55;14.50;66.30
11387;DHT22;5748;53.102;8.456;2023-04-01T04:29:21;14.50;66.20
11387;DHT22;5748;53.102;8.456;2023-04-01T04:31:48;14.40;66.30
11387;DHT22;5748;53.102;8.456;2023-04-01T04:34:15;14.40;66.30
11387;DHT22;5748;53.102;8.456;2023-04-01T04:36:44;14.40;66.30
11387;DHT22;5748;53.102;8.456;2023-04-01T04:39:12;14.60;66.60
11387;DHT22;5748;53.102;8.456;2023-04-01T04:41:40;14.40;66.30
11387;DHT22;5748;53.102;8.456;2023-04-01T04:44:07;14.40;66.40
11387;DHT22;5748;53.102;8.456;2023-04-01T04:46:34;14.40;66.50
11387;DHT22;5748;53.102;8.456;2023-04-01T04:49:03;14.40;66.60
11387;DHT22;5748;53.102;8.456;2023-04-01T04:51:29;14.40;66.50
11387;DHT22;5748;53.102;8.456;2023-04-01T04:53:59;14.40;66.50
11387;DHT22;5748;53.102;8.456;2023-04-01T04:56:27;14.40;66.50
11387;DHT22;5748;53.102;8.456;2023-04-01T04:58:56;14.40;66.50
11387;DHT22;5748;53.102;8.456;2023-04-01T05:01:23;14.30;66.50
11387;DHT22;5748;53.102;8.456;2023-04-01T05:03:51;14.40;67.40
11387;DHT22;5748;53.102;8.456;2023-04-01T05:06:19;14.40;66.60
11387;DHT22;5748;53.102;8.456;2023-04-01T05:08:46;14.40;67.10
11387;DHT22;5748;53.102;8.456;2023-04-01T05:11:15;14.40;66.80
11387;DHT22;5748;53.102;8.456;2023-04-01T05:13:45;14.40;66.80
11387;DHT22;5748;53.102;8.456;2023-04-01T05:16:14;14.40;66.80
11387;DHT22;5748;53.102;8.456;2023-04-01T05:18:42;14.40;66.90
11387;DHT22;5748;53.102;8.456;2023-04-01T05:21:10;14.40;66.80
11387;DHT22;5748;53.102;8.456;2023-04-01T05:23:39;14.40;66.80
11387;DHT22;5748;53.102;8.456;2023-04-01T05:26:07;14.40;67.00
11387;DHT22;5748;53.102;8.456;2023-04-01T05:28:36;14.40;67.00
11387;DHT22;5748;53.102;8.456;2023-04-01T05:31:05;14.40;67.00
11387;DHT22;5748;53.102;8.456;2023-04-01T05:33:33;14.40;67.00
11387;DHT22;5748;53.102;8.456;2023-04-01T05:36:08;14.30;66.90
11387;DHT22;5748;53.102;8.456;2023-04-01T05:38:36;14.30;67.20
11387;DHT22;5748;53.102;8.456;2023-04-01T05:41:03;14.40;67.00
11387;DHT22;5748;53.102;8.456;2023-04-01T05:43:30;14.30;67.10
11387;DHT22;5748;53.102;8.456;2023-04-01T05:45:57;14.30;67.00
11387;DHT22;5748;53.102;8.456;2023-04-01T05:48:26;14.30;67.00
11387;DHT22;5748;53.102;8.456;2023-04-01T05:50:53;14.20;67.40
11387;DHT22;5748;53.102;8.456;2023-04-01T05:53:20;14.30;67.40
11387;DHT22;5748;53.102;8.456;2023-04-01T05:55:47;14.30;67.30
11387;DHT22;5748;53.102;8.456;2023-04-01T05:58:14;14.40;67.40
11387;DHT22;5748;53.102;8.456;2023-04-01T06:00:41;14.40;67.20
11387;DHT22;5748;53.102;8.456;2023-04-01T06:03:08;14.40;67.20
11387;DHT22;5748;53.102;8.456;2023-04-01T06:05:41;14.40;67.20
11387;DHT22;5748;53.102;8.456;2023-04-01T06:08:13;14.40;67.30
11387;DHT22;5748;53.102;8.456;2023-04-01T06:10:58;14.50;67.50
11387;DHT22;5748;53.102;8.456;2023-04-01T06:13:41;14.50;67.50
11387;DHT22;5748;53.102;8.456;2023-04-01T06:16:22;14.50;67.40
11387;DHT22;5748;53.102;8.456;2023-04-01T06:19:07;14.50;67.40
11387;DHT22;5748;53.102;8.456;2023-04-01T06:25:29;14.50;67.80
11387;DHT22;5748;53.102;8.456;2023-04-01T06:31:25;14.50;67.60
11387;DHT22;5748;53.102;8.456;2023-04-01T06:34:26;14.50;67.40
11387;DHT22;5748;53.102;8.456;2023-04-01T06:37:15;14.50;67.70
11387;DHT22;5748;53.102;8.456;2023-04-01T06:40:05;14.50;67.70
11387;DHT22;5748;53.102;8.456;2023-04-01T06:42:51;14.60;67.70
11387;DHT22;5748;53.102;8.456;2023-04-01T06:45:31;14.60;67.70
11387;DHT22;5748;53.102;8.456;2023-04-01T06:48:28;14.60;67.70
11387;DHT22;5748;53.102;8.456;2023-04-01T06:51:08;14.60;68.10
11387;DHT22;5748;53.102;8.456;2023-04-01T06:53:48;14.60;67.90
11387;DHT22;5748;53.102;8.456;2023-04-01T06:56:20;14.70;68.00
11387;DHT22;5748;53.102;8.456;2023-04-01T06:58:51;14.80;68.00
11387;DHT22;5748;53.102;8.456;2023-04-01T07:01:22;14.70;68.00
11387;DHT22;5748;53.102;8.456;2023-04-01T07:03:55;14.90;68.10
11387;DHT22;5748;53.102;8.456;2023-04-01T07:06:27;14.80;67.90
11387;DHT22;5748;53.102;8.456;2023-04-01T07:09:02;14.90;68.00
11387;DHT22;5748;53.102;8.456;2023-04-01T07:11:34;14.90;68.00
11387;DHT22;5748;53.102;8.456;2023-04-01T07:14:06;14.90;67.90
11387;DHT22;5748;53.102;8.456;2023-04-01T07:16:41;15.00;68.00
11387;DHT22;5748;53.102;8.456;2023-04-01T07:19:16;14.90;67.90
11387;DHT22;5748;53.102;8.456;2023-04-01T07:21:48;15.00;68.10
11387;DHT22;5748;53.102;8.456;2023-04-01T07:24:23;15.00;68.00
11387;DHT22;5748;53.102;8.456;2023-04-01T07:26:55;15.10;68.20
11387;DHT22;5748;53.102;8.456;2023-04-01T07:29:23;15.10;68.20
11387;DHT22;5748;53.102;8.456;2023-04-01T07:35:07;15.10;68.40
11387;DHT22;5748;53.102;8.456;2023-04-01T07:37:45;15.20;68.60
11387;DHT22;5748;53.102;8.456;2023-04-01T07:40:25;15.20;68.50
11387;DHT22;5748;53.102;8.456;2023-04-01T07:43:05;15.30;68.50
11387;DHT22;5748;53.102;8.456;2023-04-01T07:45:45;15.40;68.50
11387;DHT22;5748;53.102;8.456;2023-04-01T07:48:21;15.40;68.30
11387;DHT22;5748;53.102;8.456;2023-04-01T07:50:58;15.40;68.30
11387;DHT22;5748;53.102;8.456;2023-04-01T07:53:33;15.50;68.50
11387;DHT22;5748;53.102;8.456;2023-04-01T07:56:09;15.50;68.30
11387;DHT22;5748;53.102;8.456;2023-04-01T07:58:49;15.50;68.30
11387;DHT22;5748;53.102;8.456;2023-04-01T08:01:23;15.60;68.30
11387;DHT22;5748;53.102;8.456;2023-04-01T08:04:10;15.50;68.10
11387;DHT22;5748;53.102;8.456;2023-04-01T08:06:48;15.60;68.10
11387;DHT22;5748;53.102;8.456;2023-04-01T08:09:25;15.60;67.90
11387;DHT22;5748;53.102;8.456;2023-04-01T08:12:06;15.70;68.10
11387;DHT22;5748;53.102;8.456;2023-04-01T08:14:46;15.70;68.20
11387;DHT22;5748;53.102;8.456;2023-04-01T08:17:26;15.80;68.20
11387;DHT22;5748;53.102;8.456;2023-04-01T08:20:13;15.70;68.20
11387;DHT22;5748;53.102;8.456;2023-04-01T08:22:49;15.80;68.40
11387;DHT22;5748;53.102;8.456;2023-04-01T08:25:21;15.80;68.10
11387;DHT22;5748;53.102;8.456;2023-04-01T08:27:56;15.80;68.00
11387;DHT22;5748;53.102;8.456;2023-04-01T08:30:28;15.80;68.00
11387;DHT22;5748;53.102;8.456;2023-04-01T08:33:05;15.80;68.10
11387;DHT22;5748;53.102;8.456;2023-04-01T08:35:38;15.90;68.40
11387;DHT22;5748;53.102;8.456;2023-04-01T08:38:11;15.80;68.50
11387;DHT22;5748;53.102;8.456;2023-04-01T08:40:55;16.10;69.00
11387;DHT22;5748;53.102;8.456;2023-04-01T08:43:51;15.90;69.10
11387;DHT22;5748;53.102;8.456;2023-04-01T08:47:03;16.00;69.10
11387;DHT22;5748;53.102;8.456;2023-04-01T08:50:01;16.10;69.40
11387;DHT22;5748;53.102;8.456;2023-04-01T08:52:48;16.20;69.70
11387;DHT22;5748;53.102;8.456;2023-04-01T08:55:31;16.30;69.80
11387;DHT22;5748;53.102;8.456;2023-04-01T08:58:49;16.50;70.40
11387;DHT22;5748;53.102;8.456;2023-04-01T09:01:48;16.60;70.60
11387;DHT22;5748;53.102;8.456;2023-04-01T09:04:33;16.80;71.30
11387;DHT22;5748;53.102;8.456;2023-04-01T09:07:22;17.10;71.40
11387;DHT22;5748;53.102;8.456;2023-04-01T09:13:41;17.60;70.40
11387;DHT22;5748;53.102;8.456;2023-04-01T09:19:23;17.90;68.90
11387;DHT22;5748;53.102;8.456;2023-04-01T09:25:21;18.00;67.10
11387;DHT22;5748;53.102;8.456;2023-04-01T09:27:57;18.10;67.60
11387;DHT22;5748;53.102;8.456;2023-04-01T09:30:59;18.10;67.70
11387;DHT22;5748;53.102;8.456;2023-04-01T09:34:19;18.10;66.90
11387;DHT22;5748;53.102;8.456;2023-04-01T09:37:17;18.20;67.90
11387;DHT22;5748;53.102;8.456;2023-04-01T09:42:45;18.20;67.20
11387;DHT22;5748;53.102;8.456;2023-04-01T09:45:34;18.20;67.30
11387;DHT22;5748;53.102;8.456;2023-04-01T09:48:18;18.20;66.10
11387;DHT22;5748;53.102;8.456;2023-04-01T09:51:03;18.20;66.50
11387;DHT22;5748;53.102;8.456;2023-04-01T09:53:47;18.10;67.10
11387;DHT22;5748;53.102;8.456;2023-04-01T09:56:55;18.20;67.40
11387;DHT22;5748;53.102;8.456;2023-04-01T10:00:00;18.30;67.30
11387;DHT22;5748;53.102;8.456;2023-04-01T10:13:11;18.40;65.10
11387;DHT22;5748;53.102;8.456;2023-04-01T10:16:26;18.40;65.60
11387;DHT22;5748;53.102;8.456;2023-04-01T10:19:27;18.40;65.30
11387;DHT22;5748;53.102;8.456;2023-04-01T10:22:30;18.30;65.40
11387;DHT22;5748;53.102;8.456;2023-04-01T10:25:32;18.30;65.50
11387;DHT22;5748;53.102;8.456;2023-04-01T10:28:43;18.20;64.40
11387;DHT22;5748;53.102;8.456;2023-04-01T10:38:14;17.90;62.50
11387;DHT22;5748;53.102;8.456;2023-04-01T10:40:57;17.70;62.70
11387;DHT22;5748;53.102;8.456;2023-04-01T10:43:51;17.50;62.80
11387;DHT22;5748;53.102;8.456;2023-04-01T10:47:23;17.30;62.50
11387;DHT22;5748;53.102;8.456;2023-04-01T10:50:38;17.10;62.70
11387;DHT22;5748;53.102;8.456;2023-04-01T10:53:34;16.90;63.00
11387;DHT22;5748;53.102;8.456;2023-04-01T10:56:38;16.70;63.30
11387;DHT22;5748;53.102;8.456;2023-04-01T11:06:11;16.20;64.10
11387;DHT22;5748;53.102;8.456;2023-04-01T11:12:29;16.10;63.90
11387;DHT22;5748;53.102;8.456;2023-04-01T11:15:29;16.00;63.90
11387;DHT22;5748;53.102;8.456;2023-04-01T11:22:07;15.70;63.90
11387;DHT22;5748;53.102;8.456;2023-04-01T11:25:09;15.50;63.70
11387;DHT22;5748;53.102;8.456;2023-04-01T11:28:13;15.40;63.80
11387;DHT22;5748;53.102;8.456;2023-04-01T11:31:02;15.30;63.90
11387;DHT22;5748;53.102;8.456;2023-04-01T11:33:40;15.20;64.20
11387;DHT22;5748;53.102;8.456;2023-04-01T11:36:33;15.10;64.50
11387;DHT22;5748;53.102;8.456;2023-04-01T11:39:16;15.00;65.00
11387;DHT22;5748;53.102;8.456;2023-04-01T11:41:56;15.00;65.30
11387;DHT22;5748;53.102;8.456;2023-04-01T11:44:29;14.90;65.20
11387;DHT22;5748;53.102;8.456;2023-04-01T11:47:10;14.90;65.30
11387;DHT22;5748;53.102;8.456;2023-04-01T11:50:03;14.90;65.30
11387;DHT22;5748;53.102;8.456;2023-04-01T11:53:03;14.90;65.10
11387;DHT22;5748;53.102;8.456;2023-04-01T11:55:46;14.80;65.10
11387;DHT22;5748;53.102;8.456;2023-04-01T11:58:52;14.70;64.90
11387;DHT22;5748;53.102;8.456;2023-04-01T12:01:33;14.70;64.80
11387;DHT22;5748;53.102;8.456;2023-04-01T12:07:22;14.50;65.20
11387;DHT22;5748;53.102;8.456;2023-04-01T12:10:01;14.50;65.30
11387;DHT22;5748;53.102;8.456;2023-04-01T12:12:38;14.50;65.50
11387;DHT22;5748;53.102;8.456;2023-04-01T12:15:19;14.30;65.50
11387;DHT22;5748;53.102;8.456;2023-04-01T12:17:52;14.40;66.00
11387;DHT22;5748;53.102;8.456;2023-04-01T12:20:34;14.40;66.00
11387;DHT22;5748;53.102;8.456;2023-04-01T12:23:17;14.40;66.20
11387;DHT22;5748;53.102;8.456;2023-04-01T12:26:06;14.40;66.20
11387;DHT22;5748;53.102;8.456;2023-04-01T12:28:49;14.40;66.30
11387;DHT22;5748;53.102;8.456;2023-04-01T12:31:34;14.40;66.30
11387;DHT22;5748;53.102;8.456;2023-04-01T12:34:49;14.40;66.50
11387;DHT22;5748;53.102;8.456;2023-04-01T12:37:32;14.40;66.50
11387;DHT22;5748;53.102;8.456;2023-04-01T12:40:24;14.50;66.20
11387;DHT22;5748;53.102;8.456;2023-04-01T12:43:34;14.50;66.20
11387;DHT22;5748;53.102;8.456;2023-04-01T12:46:20;14.50;65.90
11387;DHT22;5748;53.102;8.456;2023-04-01T12:49:16;14.40;65.40
11387;DHT22;5748;53.102;8.456;2023-04-01T12:52:10;14.40;65.50
11387;DHT22;5748;53.102;8.456;2023-04-01T12:55:06;14.40;65.70
11387;DHT22;5748;53.102;8.456;2023-04-01T13:01:30;14.30;65.80
11387;DHT22;5748;53.102;8.456;2023-04-01T13:04:35;14.30;65.70
11387;DHT22;5748;53.102;8.456;2023-04-01T13:10:31;14.30;65.90
11387;DHT22;5748;53.102;8.456;2023-04-01T13:13:32;14.40;66.10
11387;DHT22;5748;53.102;8.456;2023-04-01T13:16:09;14.30;65.70
11387;DHT22;5748;53.102;8.456;2023-04-01T13:18:52;14.30;65.70
11387;DHT22;5748;53.102;8.456;2023-04-01T13:21:32;14.30;65.70
11387;DHT22;5748;53.102;8.456;2023-04-01T13:24:22;14.30;65.80
11387;DHT22;5748;53.102;8.456;2023-04-01T13:27:00;14.30;65.60
11387;DHT22;5748;53.102;8.456;2023-04-01T13:29:33;14.30;65.40
11387;DHT22;5748;53.102;8.456;2023-04-01T13:32:24;14.30;65.50
11387;DHT22;5748;53.102;8.456;2023-04-01T13:35:05;14.20;65.50
11387;DHT22;5748;53.102;8.456;2023-04-01T13:37:52;14.20;65.20
11387;DHT22;5748;53.102;8.456;2023-04-01T13:40:34;14.10;65.20
11387;DHT22;5748;53.102;8.456;2023-04-01T13:43:11;14.10;65.30
11387;DHT22;5748;53.102;8.456;2023-04-01T13:46:06;14.10;65.20
11387;DHT22;5748;53.102;8.456;2023-04-01T13:49:08;14.10;65.20
11387;DHT22;5748;53.102;8.456;2023-04-01T13:55:19;14.00;64.80
11387;DHT22;5748;53.102;8.456;2023-04-01T13:58:04;13.90;64.80
11387;DHT22;5748;53.102;8.456;2023-04-01T14:00:51;13.90;64.80
11387;DHT22;5748;53.102;8.456;2023-04-01T14:03:31;13.90;65.00
11387;DHT22;5748;53.102;8.456;2023-04-01T14:06:16;13.80;64.90
11387;DHT22;5748;53.102;8.456;2023-04-01T14:09:01;13.80;65.00
11387;DHT22;5748;53.102;8.456;2023-04-01T14:12:04;13.70;64.90
11387;DHT22;5748;53.102;8.456;2023-04-01T14:14:43;13.70;64.80
11387;DHT22;5748;53.102;8.456;2023-04-01T14:17:33;13.70;64.80
11387;DHT22;5748;53.102;8.456;2023-04-01T14:20:25;13.70;65.00
11387;DHT22;5748;53.102;8.456;2023-04-01T14:23:17;13.60;64.80
11387;DHT22;5748;53.102;8.456;2023-04-01T14:26:10;13.60;64.80
11387;DHT22;5748;53.102;8.456;2023-04-01T14:28:55;13.50;64.80
11387;DHT22;5748;53.102;8.456;2023-04-01T14:31:37;13.50;65.00
11387;DHT22;5748;53.102;8.456;2023-04-01T14:34:21;13.40;65.00
11387;DHT22;5748;53.102;8.456;2023-04-01T14:37:03;13.40;65.20
11387;DHT22;5748;53.102;8.456;2023-04-01T14:40:02;13.40;65.10
11387;DHT22;5748;53.102;8.456;2023-04-01T14:43:03;13.40;65.00
11387;DHT22;5748;53.102;8.456;2023-04-01T14:45:55;13.30;64.90
11387;DHT22;5748;53.102;8.456;2023-04-01T14:48:32;13.30;64.90
11387;DHT22;5748;53.102;8.456;2023-04-01T14:51:10;13.30;65.00
11387;DHT22;5748;53.102;8.456;2023-04-01T14:53:43;13.20;64.80
11387;DHT22;5748;53.102;8.456;2023-04-01T14:56:34;13.20;64.80
11387;DHT22;5748;53.102;8.456;2023-04-01T14:59:04;13.10;64.60
11387;DHT22;5748;53.102;8.456;2023-04-01T15:01:45;13.10;64.60
11387;DHT22;5748;53.102;8.456;2023-04-01T15:04:28;13.00;64.50
11387;DHT22;5748;53.102;8.456;2023-04-01T15:07:36;13.00;64.50
11387;DHT22;5748;53.102;8.456;2023-04-01T15:10:22;12.90;64.40
11387;DHT22;5748;53.102;8.456;2023-04-01T15:13:05;12.80;64.00
11387;DHT22;5748;53.102;8.456;2023-04-01T15:15:49;12.80;64.30
11387;DHT22;5748;53.102;8.456;2023-04-01T15:18:35;12.80;64.60
11387;DHT22;5748;53.102;8.456;2023-04-01T15:24:28;12.70;64.90
11387;DHT22;5748;53.102;8.456;2023-04-01T15:27:14;12.70;64.90
11387;DHT22;5748;53.102;8.456;2023-04-01T15:30:01;12.70;64.50
11387;DHT22;5748;53.102;8.456;2023-04-01T15:32:46;12.60;64.40
11387;DHT22;5748;53.102;8.456;2023-04-01T15:35:28;12.60;64.40
11387;DHT22;5748;53.102;8.456;2023-04-01T15:38:06;12.50;64.30
11387;DHT22;5748;53.102;8.456;2023-04-01T15:40:43;12.50;64.30
11387;DHT22;5748;53.102;8.456;2023-04-01T15:43:23;12.50;64.40
11387;DHT22;5748;53.102;8.456;2023-04-01T15:46:08;12.30;64.10
11387;DHT22;5748;53.102;8.456;2023-04-01T15:49:03;12.80;64.50
11387;DHT22;5748;53.102;8.456;2023-04-01T15:51:54;12.30;64.10
11387;DHT22;5748;53.102;8.456;2023-04-01T15:54:46;12.30;64.30
11387;DHT22;5748;53.102;8.456;2023-04-01T15:57:25;12.20;64.00
11387;DHT22;5748;53.102;8.456;2023-04-01T16:00:22;12.20;64.00
11387;DHT22;5748;53.102;8.456;2023-04-01T16:05:58;12.10;64.00
11387;DHT22;5748;53.102;8.456;2023-04-01T16:08:51;12.00;64.10
11387;DHT22;5748;53.102;8.456;2023-04-01T16:11:36;12.00;64.20
11387;DHT22;5748;53.102;8.456;2023-04-01T16:14:16;12.00;64.20
11387;DHT22;5748;53.102;8.456;2023-04-01T16:17:05;12.00;64.10
11387;DHT22;5748;53.102;8.456;2023-04-01T16:19:49;12.00;64.10
11387;DHT22;5748;53.102;8.456;2023-04-01T16:22:23;11.90;64.00
11387;DHT22;5748;53.102;8.456;2023-04-01T16:25:01;11.90;64.10
11387;DHT22;5748;53.102;8.456;2023-04-01T16:27:47;11.90;64.20
11387;DHT22;5748;53.102;8.456;2023-04-01T16:30:26;11.90;64.30
11387;DHT22;5748;53.102;8.456;2023-04-01T16:33:03;11.90;64.30
11387;DHT22;5748;53.102;8.456;2023-04-01T16:35:40;11.90;64.30
11387;DHT22;5748;53.102;8.456;2023-04-01T16:38:15;11.90;64.30
11387;DHT22;5748;53.102;8.456;2023-04-01T16:40:58;11.90;64.10
11387;DHT22;5748;53.102;8.456;2023-04-01T16:43:30;11.90;64.00
11387;DHT22;5748;53.102;8.456;2023-04-01T16:46:26;11.90;64.00
11387;DHT22;5748;53.102;8.456;2023-04-01T16:52:15;11.80;63.70
11387;DHT22;5748;53.102;8.456;2023-04-01T16:54:51;11.80;63.70
11387;DHT22;5748;53.102;8.456;2023-04-01T16:57:27;11.70;64.00
11387;DHT22;5748;53.102;8.456;2023-04-01T17:00:03;11.70;63.70
11387;DHT22;5748;53.102;8.456;2023-04-01T17:02:47;11.80;63.80
11387;DHT22;5748;53.102;8.456;2023-04-01T17:05:16;11.70;63.70
11387;DHT22;5748;53.102;8.456;2023-04-01T17:07:48;11.60;63.50
11387;DHT22;5748;53.102;8.456;2023-04-01T17:10:43;11.60;63.50
11387;DHT22;5748;53.102;8.456;2023-04-01T17:13:29;11.60;63.60
11387;DHT22;5748;53.102;8.456;2023-04-01T17:16:20;11.60;63.60
11387;DHT22;5748;53.102;8.456;2023-04-01T17:19:14;11.50;63.40
11387;DHT22;5748;53.102;8.456;2023-04-01T17:21:57;11.50;63.40
11387;DHT22;5748;53.102;8.456;2023-04-01T17:24:40;11.40;63.20
11387;DHT22;5748;53.102;8.456;2023-04-01T17:27:20;11.40;63.30
11387;DHT22;5748;53.102;8.456;2023-04-01T17:33:08;11.30;63.30
11387;DHT22;5748;53.102;8.456;2023-04-01T17:35:51;11.30;63.30
11387;DHT22;5748;53.102;8.456;2023-04-01T17:38:38;11.30;63.50
11387;DHT22;5748;53.102;8.456;2023-04-01T17:41:19;11.30;63.60
11387;DHT22;5748;53.102;8.456;2023-04-01T17:44:00;11.20;63.40
11387;DHT22;5748;53.102;8.456;2023-04-01T17:46:38;11.20;63.40
11387;DHT22;5748;53.102;8.456;2023-04-01T17:49:24;11.20;63.40
11387;DHT22;5748;53.102;8.456;2023-04-01T17:51:58;11.20;63.50
11387;DHT22;5748;53.102;8.456;2023-04-01T17:54:34;11.20;63.50
11387;DHT22;5748;53.102;8.456;2023-04-01T17:57:26;11.10;63.40
11387;DHT22;5748;53.102;8.456;2023-04-01T18:00:02;11.10;63.60
11387;DHT22;5748;53.102;8.456;2023-04-01T18:02:41;11.10;63.50
11387;DHT22;5748;53.102;8.456;2023-04-01T18:05:35;11.10;63.70
11387;DHT22;5748;53.102;8.456;2023-04-01T18:08:16;11.00;63.70
11387;DHT22;5748;53.102;8.456;2023-04-01T18:10:56;11.00;63.70
11387;DHT22;5748;53.102;8.456;2023-04-01T18:17:00;11.00;63.80
11387;DHT22;5748;53.102;8.456;2023-04-01T18:19:46;10.90;63.70
11387;DHT22;5748;53.102;8.456;2023-04-01T18:22:21;10.90;63.60
11387;DHT22;5748;53.102;8.456;2023-04-01T18:24:58;10.90;63.60
11387;DHT22;5748;53.102;8.456;2023-04-01T18:27:32;10.90;63.70
11387;DHT22;5748;53.102;8.456;2023-04-01T18:30:11;10.80;63.60